Time;durP1;ratioP1;P1;durP2;ratioP2;P2;SDS_P1;SDS_P2;PMS_P1;PMS_P2;Temp;Humidity;BMP_temperature;BMP_pressure;BME280_temperature;BME280_humidity;BME280_pressure;Samples;Min_cycle;Max_cycle;Signal;HPM_P1;HPM_P2
2021/03/18 00:02:23;;;;;;;34.47;18.67;;;;;;;3.33;59.89;100750.97;4851395;28;96992;-76
2021/03/18 00:04:49;;;;;;;37.07;19.17;;;;;;;3.33;59.89;100756.16;4842286;29;96920;-76
2021/03/18 00:07:14;;;;;;;40.20;19.47;;;;;;;3.27;60.13;100764.81;4868970;28;99532;-76
2021/03/18 00:09:40;;;;;;;38.50;19.93;;;;;;;3.21;60.66;100767.38;4889289;28;97433;-78
2021/03/18 00:12:07;;;;;;;45.27;21.77;;;;;;;3.18;59.93;100764.78;4887498;28;96883;-77
2021/03/18 00:14:33;;;;;;;47.73;21.60;;;;;;;3.12;60.58;100765.63;4872854;28;97143;-78
2021/03/18 00:16:59;;;;;;;56.53;23.50;;;;;;;3.11;60.47;100771.69;4882614;28;98183;-83
2021/03/18 00:19:25;;;;;;;60.87;25.00;;;;;;;3.10;59.97;100769.94;4868624;28;98454;-76
2021/03/18 00:21:50;;;;;;;51.47;22.80;;;;;;;3.09;60.26;100764.75;4869006;28;97608;-76
2021/03/18 00:24:17;;;;;;;49.03;22.27;;;;;;;3.09;60.68;100765.63;4837442;28;96931;-76
2021/03/18 00:26:43;;;;;;;43.67;21.17;;;;;;;3.02;60.78;100768.16;4857933;28;101297;-77
2021/03/18 00:29:09;;;;;;;48.23;22.33;;;;;;;3.07;60.21;100774.25;4871112;28;101412;-76
2021/03/18 00:31:35;;;;;;;43.23;19.90;;;;;;;3.07;59.94;100775.13;4884684;28;96966;-77
2021/03/18 00:34:02;;;;;;;47.67;21.87;;;;;;;2.94;60.43;100771.63;4837270;28;96885;-77
2021/03/18 00:36:28;;;;;;;50.00;21.93;;;;;;;2.98;60.19;100769.88;4837417;28;101832;-77
2021/03/18 00:38:55;;;;;;;47.60;20.77;;;;;;;2.93;60.76;100763.81;4837494;28;99320;-78
2021/03/18 00:41:20;;;;;;;43.07;19.63;;;;;;;2.87;60.72;100768.97;4868553;28;97684;-77
2021/03/18 00:43:46;;;;;;;41.97;19.00;;;;;;;2.90;60.59;100761.22;4851438;28;96866;-77
2021/03/18 00:46:12;;;;;;;38.97;19.40;;;;;;;2.76;60.90;100755.94;4889505;28;101586;-75
2021/03/18 00:48:42;;;;;;;36.23;17.90;;;;;;;2.76;60.58;100766.31;4875242;28;101090;-76
2021/03/18 00:51:12;;;;;;;38.83;20.07;;;;;;;2.81;60.63;100764.63;4873638;28;96625;-75
2021/03/18 00:53:41;;;;;;;39.53;18.20;;;;;;;2.74;60.88;100767.19;4874079;28;96821;-76
2021/03/18 00:56:12;;;;;;;36.53;18.27;;;;;;;2.69;60.85;100764.56;4873477;28;101284;-75
2021/03/18 00:58:42;;;;;;;;;;;;;;;2.72;60.93;100764.59;4875150;28;98481;-76
2021/03/18 01:01:11;;;;;;;33.47;17.13;;;;;;;2.61;60.98;100761.94;4905533;28;97401;-76
2021/03/18 01:03:39;;;;;;;37.37;17.07;;;;;;;2.67;60.95;100759.38;4874811;28;97043;-76
2021/03/18 01:06:14;;;;;;;35.67;16.37;;;;;;;2.59;60.65;100755.00;4890571;28;98479;-78
2021/03/18 01:08:40;;;;;;;31.70;16.77;;;;;;;2.55;60.58;100748.94;4877295;28;98000;-75
2021/03/18 01:11:11;;;;;;;35.77;16.93;;;;;;;2.59;60.78;100760.19;4876176;28;97791;-79
2021/03/18 01:13:40;;;;;;;36.10;16.43;;;;;;;2.56;60.89;100752.38;4877256;28;96859;-77
2021/03/18 01:16:07;;;;;;;35.20;15.93;;;;;;;2.58;60.57;100753.28;4876345;28;101150;-81
2021/03/18 01:18:37;;;;;;;35.07;15.90;;;;;;;2.54;61.16;100751.53;4877138;28;101223;-76
2021/03/18 01:21:05;;;;;;;35.87;15.77;;;;;;;2.53;60.89;100747.19;4893026;28;96876;-80
2021/03/18 01:23:30;;;;;;;28.60;14.80;;;;;;;2.51;60.40;100749.78;4877401;28;96886;-75
2021/03/18 01:25:57;;;;;;;34.47;15.53;;;;;;;2.40;61.18;100754.03;4861408;28;101310;-76
2021/03/18 01:28:23;;;;;;;33.17;15.17;;;;;;;2.48;61.07;100748.03;4857963;28;98497;-76
2021/03/18 01:30:48;;;;;;;33.00;14.80;;;;;;;2.39;61.08;100750.59;4858319;28;96744;-75
2021/03/18 01:33:14;;;;;;;32.43;14.93;;;;;;;2.36;60.78;100754.88;4857516;28;96966;-75
2021/03/18 01:35:39;;;;;;;32.13;15.10;;;;;;;2.34;61.16;100747.09;4841950;28;101444;-76
2021/03/18 01:38:05;;;;;;;32.83;14.70;;;;;;;2.35;60.86;100754.00;4841582;28;101662;-80
2021/03/18 01:40:33;;;;;;;33.57;14.30;;;;;;;2.35;60.77;100746.22;4873607;28;96949;-75
2021/03/18 01:43:00;;;;;;;26.07;13.97;;;;;;;2.31;61.14;100741.88;4842579;28;97081;-75
2021/03/18 01:45:26;;;;;;;29.27;14.33;;;;;;;2.29;60.85;100747.91;4857098;28;101591;-75
2021/03/18 01:47:54;;;;;;;32.33;14.87;;;;;;;2.26;61.42;100747.03;4857851;28;101366;-76
2021/03/18 01:50:22;;;;;;;31.47;13.70;;;;;;;2.26;61.00;100744.44;4856841;28;97089;-78
2021/03/18 01:52:48;;;;;;;28.03;13.00;;;;;;;2.29;60.47;100746.19;4842795;28;96957;-75
2021/03/18 01:55:33;;;;;;;25.43;12.70;;;;;;;2.26;60.96;100744.44;4857269;28;97862;-75
2021/03/18 01:58:00;;;;;;;29.40;14.47;;;;;;;2.26;60.75;100743.56;4856868;28;101515;-78
2021/03/18 02:00:26;;;;;;;27.43;12.53;;;;;;;2.24;60.90;100742.69;4856817;28;96658;-75
2021/03/18 02:02:52;;;;;;;33.37;14.13;;;;;;;2.26;60.65;100733.22;4857908;28;97206;-75
2021/03/18 02:05:19;;;;;;;31.50;14.77;;;;;;;2.21;61.08;100738.38;4857338;28;98023;-76
2021/03/18 02:07:44;;;;;;;32.23;15.00;;;;;;;2.23;61.49;100741.84;4873407;28;101705;-76
2021/03/18 02:10:11;;;;;;;31.20;14.27;;;;;;;2.21;61.28;100738.38;4856624;28;97022;-75
2021/03/18 02:12:37;;;;;;;27.57;13.27;;;;;;;2.10;61.32;100732.25;4873524;28;96927;-76
2021/03/18 02:15:05;;;;;;;33.00;15.10;;;;;;;2.04;61.53;100735.66;4873602;28;97491;-76
2021/03/18 02:18:15;;;;;;;35.50;15.33;;;;;;;2.12;62.03;100740.03;4872425;28;97912;-76
2021/03/18 02:21:00;;;;;;;33.93;15.53;;;;;;;2.04;61.95;100732.22;4856011;28;96935;-76
2021/03/18 02:23:43;;;;;;;35.70;16.03;;;;;;;1.98;61.50;100735.63;4872892;28;97275;-76
2021/03/18 02:26:29;;;;;;;32.83;15.63;;;;;;;2.01;61.42;100739.97;4873160;28;98431;-76
2021/03/18 02:29:23;;;;;;;39.47;17.63;;;;;;;2.00;61.91;100738.22;4857318;28;97978;-76
2021/03/18 02:31:54;;;;;;;35.57;17.80;;;;;;;1.97;61.64;100738.19;4874677;28;96726;-75
2021/03/18 02:34:39;;;;;;;43.90;19.20;;;;;;;2.04;61.98;100746.03;4872500;28;97048;-76
2021/03/18 02:37:12;;;;;;;36.60;17.97;;;;;;;1.91;62.20;100745.91;4883542;28;101518;-79
2021/03/18 02:39:44;;;;;;;42.77;19.37;;;;;;;1.67;63.17;100751.75;4891743;28;97996;-75
2021/03/18 02:42:14;;;;;;;35.67;18.92;;;;;;;1.78;62.68;100750.13;4841347;29;96751;-76
2021/03/18 02:44:41;;;;;;;39.47;19.97;;;;;;;1.86;62.50;100745.00;4860750;28;96900;-75
2021/03/18 02:47:09;;;;;;;43.63;20.30;;;;;;;1.85;61.94;100745.88;4856526;28;101233;-80
2021/03/18 02:49:43;;;;;;;37.80;19.23;;;;;;;1.78;61.89;100761.34;4841118;28;100990;-77
2021/03/18 02:52:13;;;;;;;39.93;19.50;;;;;;;1.74;62.54;100758.72;4856069;28;97361;-76
2021/03/18 02:54:40;;;;;;;40.57;19.83;;;;;;;1.67;62.72;100760.38;4873581;28;97209;-76
2021/03/18 02:57:07;;;;;;;37.67;18.97;;;;;;;1.72;62.46;100765.63;4871339;28;98469;-79
2021/03/18 02:59:36;;;;;;;40.57;19.40;;;;;;;1.62;62.97;100756.00;4840585;28;101213;-75
2021/03/18 03:02:05;;;;;;;41.10;19.83;;;;;;;1.63;62.99;100760.31;4857038;28;97186;-75
2021/03/18 03:04:35;;;;;;;40.50;20.57;;;;;;;1.65;62.73;100759.50;4856527;28;96925;-75
2021/03/18 03:07:01;;;;;;;43.67;21.13;;;;;;;1.70;62.15;100764.72;4841142;28;101676;-78
2021/03/18 03:09:26;;;;;;;42.37;20.23;;;;;;;1.69;62.06;100763.88;4840175;28;101237;-76
2021/03/18 03:11:54;;;;;;;40.80;19.37;;;;;;;1.71;62.31;100758.69;4836825;28;97343;-76
2021/03/18 03:14:20;;;;;;;46.10;20.10;;;;;;;1.70;62.21;100767.31;4859440;28;97320;-75
2021/03/18 03:16:45;;;;;;;42.03;19.70;;;;;;;1.68;62.55;100766.41;4874456;28;101104;-76
2021/03/18 03:19:12;;;;;;;42.43;19.63;;;;;;;1.65;62.57;100774.16;4858543;28;101498;-75
2021/03/18 03:21:37;;;;;;;37.80;19.10;;;;;;;1.62;62.30;100772.41;4891495;28;96748;-75
2021/03/18 03:24:06;;;;;;;41.50;19.60;;;;;;;1.50;62.67;100770.56;4891995;28;97046;-76
2021/03/18 03:26:32;;;;;;;40.30;18.60;;;;;;;1.56;62.53;100770.63;4875556;28;101371;-75
2021/03/18 03:28:59;;;;;;;41.20;19.30;;;;;;;1.54;62.75;100780.13;4874629;28;99301;-75
2021/03/18 03:31:25;;;;;;;40.13;18.20;;;;;;;1.57;61.98;100781.84;4874458;28;96877;-76
2021/03/18 03:33:51;;;;;;;40.03;19.70;;;;;;;1.58;62.49;100774.09;4875709;28;96932;-76
2021/03/18 03:36:17;;;;;;;42.43;20.87;;;;;;;1.51;62.35;100781.78;4874750;28;100272;-76
2021/03/18 03:38:43;;;;;;;44.83;20.80;;;;;;;1.45;62.36;100782.59;4890992;28;97832;-75
2021/03/18 03:41:09;;;;;;;42.47;20.87;;;;;;;1.27;63.04;100777.22;4874052;28;97266;-79
2021/03/18 03:43:34;;;;;;;41.13;19.87;;;;;;;1.27;62.59;100777.22;4891525;28;96855;-76
2021/03/18 03:46:01;;;;;;;44.87;20.77;;;;;;;1.17;63.09;100778.84;4891295;28;98580;-76
2021/03/18 03:48:29;;;;;;;43.70;21.60;;;;;;;1.17;62.93;100781.44;4873745;28;101265;-76
2021/03/18 03:50:58;;;;;;;51.07;22.47;;;;;;;1.25;62.78;100779.81;4875091;28;97252;-76
2021/03/18 03:53:52;;;;;;;47.00;22.80;;;;;;;1.09;63.73;100777.88;4858532;28;97167;-76
2021/03/18 03:56:43;;;;;;;51.87;24.00;;;;;;;0.99;63.76;100776.03;4860542;28;99891;-76
2021/03/18 03:59:17;;;;;;;58.10;22.90;;;;;;;1.00;63.63;100777.78;4855674;28;98062;-80
2021/03/18 04:01:50;;;;;;;55.90;24.60;;;;;;;0.99;63.76;100776.03;4855617;28;97074;-77
2021/03/18 04:04:24;;;;;;;57.37;24.80;;;;;;;0.94;63.83;100764.78;4855462;28;96737;-76
2021/03/18 04:06:55;;;;;;;56.17;25.27;;;;;;;1.05;63.85;100773.53;4855427;28;101494;-75
2021/03/18 04:09:21;;;;;;;42.83;22.27;;;;;;;1.11;63.45;100769.28;4852921;28;97971;-76
2021/03/18 04:11:49;;;;;;;46.77;22.77;;;;;;;1.17;62.97;100770.22;4849730;28;97555;-76
2021/03/18 04:14:16;;;;;;;48.17;22.93;;;;;;;1.21;63.39;100761.63;4854887;28;97076;-76
2021/03/18 04:16:44;;;;;;;52.10;22.70;;;;;;;1.20;63.14;100772.84;4870632;28;98410;-75
2021/03/18 04:19:14;;;;;;;47.53;22.00;;;;;;;1.18;62.96;100775.41;4854612;28;101402;-80
2021/03/18 04:21:42;;;;;;;44.57;20.17;;;;;;;1.15;63.02;100765.03;4855816;28;96951;-76
2021/03/18 04:24:10;;;;;;;41.53;19.33;;;;;;;1.12;63.25;100772.75;4871794;28;96963;-79
2021/03/18 04:26:36;;;;;;;49.33;20.07;;;;;;;1.16;62.97;100773.63;4839954;28;102145;-78
2021/03/18 04:29:03;;;;;;;39.87;20.20;;;;;;;1.12;62.95;100772.75;4839868;28;101531;-75
2021/03/18 04:31:30;;;;;;;49.80;21.27;;;;;;;1.16;62.50;100771.06;4875954;28;96792;-75
2021/03/18 04:33:56;;;;;;;42.43;20.83;;;;;;;1.18;62.82;100766.78;4858910;28;97317;-76
2021/03/18 04:36:22;;;;;;;43.13;20.33;;;;;;;1.19;63.11;100764.19;4874003;28;97323;-76
2021/03/18 04:38:48;;;;;;;42.40;20.73;;;;;;;1.12;62.97;100770.16;4889926;28;98111;-77
2021/03/18 04:41:13;;;;;;;42.87;22.17;;;;;;;1.08;63.16;100768.41;4890484;28;96774;-75
2021/03/18 04:43:39;;;;;;;51.23;23.40;;;;;;;1.03;63.19;100764.88;4878135;28;96746;-76
2021/03/18 04:46:06;;;;;;;47.10;23.03;;;;;;;1.08;63.12;100764.09;4877711;28;100891;-76
2021/03/18 04:48:33;;;;;;;44.87;21.83;;;;;;;1.06;63.05;100764.91;4893492;28;97906;-77
2021/03/18 04:50:59;;;;;;;43.63;22.13;;;;;;;0.96;63.44;100761.38;4888311;28;96913;-76
2021/03/18 04:53:24;;;;;;;46.33;21.70;;;;;;;1.03;62.83;100754.53;4858111;28;97001;-76
2021/03/18 04:55:50;;;;;;;47.47;23.10;;;;;;;1.04;63.44;100764.03;4842215;28;101513;-76
2021/03/18 04:58:19;;;;;;;40.77;20.73;;;;;;;0.99;63.27;100764.00;4857452;28;100759;-75
2021/03/18 05:00:46;;;;;;;41.13;18.47;;;;;;;0.99;63.35;100756.22;4874273;28;97260;-75
2021/03/18 05:03:12;;;;;;;44.60;19.40;;;;;;;1.05;63.41;100753.72;4857732;28;97040;-77
2021/03/18 05:05:38;;;;;;;39.43;19.00;;;;;;;0.89;64.20;100751.78;4858652;28;97979;-76
2021/03/18 05:08:04;;;;;;;36.27;18.40;;;;;;;0.98;63.46;100756.19;4870103;28;101027;-76
2021/03/18 05:10:33;;;;;;;35.33;18.03;;;;;;;0.98;63.86;100759.66;4860923;28;97006;-75
2021/03/18 05:13:00;;;;;;;39.80;20.37;;;;;;;0.87;63.94;100762.13;4877671;28;96860;-76
2021/03/18 05:15:26;;;;;;;45.63;20.67;;;;;;;1.03;63.88;100759.72;4876436;28;100995;-75
2021/03/18 05:17:52;;;;;;;38.97;19.20;;;;;;;1.07;63.72;100756.31;4860659;28;101494;-76
2021/03/18 05:20:21;;;;;;;45.27;20.43;;;;;;;0.96;63.88;100757.88;4870201;28;97213;-75
2021/03/18 05:22:48;;;;;;;44.50;21.17;;;;;;;0.89;63.92;100751.78;4842952;28;97332;-75
2021/03/18 05:25:15;;;;;;;41.27;21.47;;;;;;;1.02;63.68;100755.38;4841890;28;100048;-76
2021/03/18 05:27:42;;;;;;;50.03;22.10;;;;;;;1.06;63.67;100757.16;4857532;28;101358;-76
2021/03/18 05:30:09;;;;;;;43.10;20.57;;;;;;;1.04;63.54;100754.53;4880716;28;96661;-80
2021/03/18 05:32:36;;;;;;;42.50;22.17;;;;;;;1.02;63.94;100751.09;4892933;28;96877;-77
2021/03/18 05:35:06;;;;;;;43.10;21.40;;;;;;;1.19;63.56;100759.03;4861246;28;101798;-75
2021/03/18 05:37:32;;;;;;;36.77;19.83;;;;;;;1.32;62.90;100766.06;4875714;28;100398;-75
2021/03/18 05:39:57;;;;;;;38.87;19.30;;;;;;;1.37;63.22;100766.13;4860806;28;97433;-76
2021/03/18 05:42:23;;;;;;;30.70;18.37;;;;;;;1.44;62.97;100772.22;4892993;28;96908;-77
2021/03/18 05:44:49;;;;;;;37.90;19.17;;;;;;;1.67;62.32;100772.47;4892484;28;98108;-76
2021/03/18 05:47:15;;;;;;;43.17;19.70;;;;;;;1.98;62.23;100771.03;4875931;28;97934;-76
2021/03/18 05:49:43;;;;;;;43.27;20.90;;;;;;;2.38;60.84;100772.16;4864603;28;97019;-77
2021/03/18 05:52:08;;;;;;;38.57;20.43;;;;;;;2.66;60.30;100780.97;4891468;28;97193;-81
2021/03/18 05:54:35;;;;;;;36.13;19.37;;;;;;;2.78;60.11;100782.75;4884738;28;98072;-76
2021/03/18 05:57:01;;;;;;;40.40;18.97;;;;;;;2.83;59.81;100787.97;4846313;28;101460;-75
2021/03/18 05:59:28;;;;;;;37.13;17.93;;;;;;;3.24;59.31;100795.06;4891661;28;97320;-76
2021/03/18 06:01:55;;;;;;;37.97;18.93;;;;;;;3.50;58.09;100789.97;4861435;28;96961;-76
2021/03/18 06:04:22;;;;;;;40.57;18.67;;;;;;;3.66;58.30;100783.91;4875854;28;98058;-76
2021/03/18 06:06:48;;;;;;;36.60;18.03;;;;;;;3.74;58.18;100782.19;4876301;28;101898;-75
2021/03/18 06:09:14;;;;;;;39.13;17.63;;;;;;;4.43;57.09;100789.13;4883005;28;96569;-75
2021/03/18 06:11:40;;;;;;;35.13;17.67;;;;;;;4.50;56.18;100790.84;4857390;28;97126;-76
2021/03/18 06:14:06;;;;;;;34.63;17.33;;;;;;;4.86;55.85;100786.41;4856222;28;101041;-76
2021/03/18 06:16:33;;;;;;;36.27;17.43;;;;;;;4.36;56.91;100790.84;4871523;28;98345;-75
2021/03/18 06:19:00;;;;;;;38.47;18.50;;;;;;;5.10;55.63;100777.66;4854140;28;98108;-75
2021/03/18 06:21:47;;;;;;;33.60;18.00;;;;;;;6.00;53.96;100778.91;4871831;28;97218;-75
2021/03/18 06:24:13;;;;;;;36.60;18.37;;;;;;;6.56;52.92;100782.72;4854110;28;100995;-78
2021/03/18 06:26:39;;;;;;;38.27;20.63;;;;;;;6.97;51.96;100792.69;4871038;28;98152;-75
2021/03/18 06:29:28;;;;;;;37.53;19.33;;;;;;;7.52;50.56;100788.50;4852533;28;97271;-75
2021/03/18 06:31:55;;;;;;;39.30;20.97;;;;;;;7.93;49.72;100787.88;4864556;28;96861;-74
2021/03/18 06:34:41;;;;;;;38.50;21.07;;;;;;;8.65;48.52;100777.13;4853596;28;97894;-74
2021/03/18 06:37:28;;;;;;;35.05;18.95;;;;;;;9.50;46.88;100775.34;4852334;28;98400;-75
2021/03/18 06:39:56;;;;;;;34.95;19.98;;;;;;;10.18;45.64;100771.09;4861176;28;96745;-75
2021/03/18 06:42:21;;;;;;;44.47;20.95;;;;;;;10.56;45.03;100771.91;4847684;28;98064;-75
2021/03/18 06:44:47;;;;;;;36.83;20.90;;;;;;;11.19;43.54;100771.00;4856115;28;101050;-75
2021/03/18 06:47:13;;;;;;;36.15;19.73;;;;;;;12.35;41.22;100768.25;4858210;28;101333;-77
2021/03/18 06:49:39;;;;;;;37.58;20.77;;;;;;;15.33;36.71;100768.59;4864898;28;97185;-75
2021/03/18 06:52:07;;;;;;;35.70;19.65;;;;;;;14.79;36.74;100772.78;4850975;28;97134;-76
2021/03/18 06:54:41;;;;;;;38.70;21.75;;;;;;;12.35;40.33;100769.09;4871208;28;98540;-75
2021/03/18 06:57:07;;;;;;;36.88;19.85;;;;;;;11.55;41.51;100773.47;4861190;28;100852;-75
2021/03/18 06:59:36;;;;;;;36.25;19.63;;;;;;;12.80;39.60;100770.16;4836640;28;97186;-77
2021/03/18 07:02:19;;;;;;;36.17;20.48;;;;;;;13.04;39.41;100777.19;4855029;28;96974;-73
2021/03/18 07:04:47;;;;;;;36.17;19.95;;;;;;;13.11;39.00;100775.19;4856186;28;101777;-73
2021/03/18 07:07:14;;;;;;;32.80;19.40;;;;;;;16.05;35.78;100781.00;4871745;28;101534;-77
2021/03/18 07:09:40;;;;;;;39.70;21.58;;;;;;;16.84;33.29;100756.72;4867281;28;97377;-73
2021/03/18 07:12:14;;;;;;;40.95;21.60;;;;;;;15.24;35.83;100758.44;4854799;28;97067;-74
2021/03/18 07:14:44;;;;;;;42.95;20.88;;;;;;;16.73;33.97;100759.88;4847618;29;97786;-74
2021/03/18 07:17:17;;;;;;;43.05;20.63;;;;;;;16.82;33.31;100753.28;4852741;29;101596;-74
2021/03/18 07:19:43;;;;;;;39.22;20.25;;;;;;;14.42;36.93;100760.28;4852956;28;96899;-74
2021/03/18 07:22:19;;;;;;;37.45;21.30;;;;;;;13.73;38.22;100752.59;4855732;28;97022;-74
2021/03/18 07:24:53;;;;;;;32.13;18.20;;;;;;;12.81;39.06;100756.97;4855916;28;98214;-74
2021/03/18 07:27:18;;;;;;;39.17;20.25;;;;;;;12.66;39.64;100757.53;4855230;28;101250;-74
2021/03/18 07:29:46;;;;;;;35.28;20.92;;;;;;;12.62;39.82;100748.00;4853956;28;97006;-74
2021/03/18 07:32:12;;;;;;;31.83;19.38;;;;;;;14.36;37.80;100747.34;4845430;28;97209;-75
2021/03/18 07:34:39;;;;;;;28.98;17.90;;;;;;;12.80;39.46;100752.63;4864982;28;98002;-74
2021/03/18 07:37:09;;;;;;;30.92;18.77;;;;;;;15.75;36.33;100742.81;4859375;28;101472;-76
2021/03/18 07:39:39;;;;;;;30.30;20.23;;;;;;;15.43;35.94;100749.63;4857758;28;97065;-74
2021/03/18 07:42:07;;;;;;;32.72;19.05;;;;;;;16.19;35.62;100747.69;4854423;28;97238;-75
2021/03/18 07:44:34;;;;;;;32.65;20.13;;;;;;;16.48;34.75;100740.91;4851565;28;98255;-74
2021/03/18 07:47:01;;;;;;;31.92;19.80;;;;;;;17.11;34.12;100750.84;4855574;28;101673;-74
2021/03/18 07:49:29;;;;;;;35.30;22.45;;;;;;;15.89;35.53;100742.16;4857924;28;97457;-74
2021/03/18 07:51:57;;;;;;;33.63;21.58;;;;;;;15.23;36.20;100742.63;4856126;28;97170;-74
2021/03/18 07:54:23;;;;;;;29.98;21.05;;;;;;;13.51;38.72;100752.59;4851877;28;101131;-74
2021/03/18 07:56:53;;;;;;;32.30;21.90;;;;;;;14.45;37.47;100749.59;4861304;28;102095;-74
2021/03/18 07:59:20;;;;;;;35.33;22.20;;;;;;;13.18;39.20;100749.44;4867357;28;96674;-74
2021/03/18 08:01:47;;;;;;;36.00;20.58;;;;;;;12.05;40.64;100757.00;4867620;28;97742;-74
2021/03/18 08:04:14;;;;;;;30.48;19.67;;;;;;;10.87;43.11;100757.03;4873437;28;101677;-78
2021/03/18 08:06:39;;;;;;;31.33;19.52;;;;;;;10.30;43.87;100759.50;4875229;28;101299;-74
2021/03/18 08:09:05;;;;;;;31.55;18.85;;;;;;;10.34;43.88;100758.50;4890885;28;97173;-75
2021/03/18 08:11:35;;;;;;;30.27;18.58;;;;;;;9.71;44.77;100757.41;4889082;28;97260;-73
2021/03/18 08:14:08;;;;;;;28.92;18.15;;;;;;;9.50;45.75;100761.38;4839794;28;101254;-73
2021/03/18 08:16:34;;;;;;;26.92;17.05;;;;;;;9.17;46.09;100763.00;4872918;28;97916;-74
2021/03/18 08:19:01;;;;;;;29.45;17.50;;;;;;;8.86;47.14;100763.59;4862454;28;97544;-72
2021/03/18 08:21:42;;;;;;;28.20;16.75;;;;;;;8.47;48.33;100766.09;4877704;28;96881;-73
2021/03/18 08:24:13;;;;;;;26.40;17.13;;;;;;;8.43;47.85;100761.81;4877830;28;101334;-73
2021/03/18 08:26:44;;;;;;;30.27;18.70;;;;;;;8.15;48.86;100772.72;4861603;28;101511;-73
2021/03/18 08:29:13;;;;;;;31.10;19.65;;;;;;;7.64;49.94;100774.41;4855097;28;97360;-74
2021/03/18 08:31:45;;;;;;;27.80;18.75;;;;;;;7.65;49.96;100770.91;4860851;28;96834;-73
2021/03/18 08:34:11;;;;;;;;;;;;;;;7.92;49.89;100773.09;4891631;28;98157;-74
2021/03/18 08:36:37;;;;;;;35.85;19.70;;;;;;;7.75;50.28;100772.50;4874687;28;101221;-74
2021/03/18 08:39:12;;;;;;;42.75;22.33;;;;;;;7.79;50.06;100766.31;4874881;28;98493;-73
2021/03/18 08:41:43;;;;;;;33.08;21.85;;;;;;;7.47;50.89;100764.19;4874673;28;97538;-74
2021/03/18 08:44:33;;;;;;;44.50;25.45;;;;;;;7.15;52.06;100769.84;4857443;28;101691;-75
2021/03/18 08:47:09;;;;;;;40.30;25.10;;;;;;;7.21;51.51;100772.38;4859229;28;101739;-76
2021/03/18 08:49:38;;;;;;;46.40;25.13;;;;;;;7.44;50.98;100770.31;4874303;28;97187;-76
2021/03/18 08:52:19;;;;;;;40.33;24.42;;;;;;;7.83;50.13;100765.41;4874991;28;96980;-76
2021/03/18 08:54:49;;;;;;;41.97;25.77;;;;;;;7.63;50.83;100764.84;4858548;28;99042;-74
2021/03/18 08:57:21;;;;;;;45.20;25.65;;;;;;;8.01;50.87;100761.63;4868921;28;97503;-74
2021/03/18 09:00:14;;;;;;;43.50;26.73;;;;;;;7.78;50.25;100764.63;4864066;28;96988;-79
2021/03/18 09:02:40;;;;;;;43.45;25.17;;;;;;;8.91;48.76;100758.28;4865227;28;99910;-74
2021/03/18 09:05:11;;;;;;;38.05;25.10;;;;;;;8.63;48.41;100760.56;4845328;28;98194;-75
2021/03/18 09:07:37;;;;;;;44.20;25.83;;;;;;;8.57;48.68;100766.78;4854322;28;101608;-75
2021/03/18 09:10:11;;;;;;;42.70;26.17;;;;;;;8.32;49.36;100758.47;4871620;28;96721;-74
2021/03/18 09:12:44;;;;;;;43.00;25.85;;;;;;;7.91;50.22;100765.28;4859367;28;96893;-74
2021/03/18 09:15:18;;;;;;;42.33;25.15;;;;;;;7.62;50.56;100760.50;4867594;28;98491;-74
2021/03/18 09:17:46;;;;;;;46.90;27.57;;;;;;;7.43;50.94;100755.53;4833184;28;101389;-74
2021/03/18 09:20:15;;;;;;;40.83;26.23;;;;;;;7.68;50.89;100755.19;4855133;28;96962;-74
2021/03/18 09:22:40;;;;;;;49.25;26.73;;;;;;;8.19;50.26;100756.97;4851432;28;97070;-75
2021/03/18 09:25:07;;;;;;;41.88;26.85;;;;;;;7.81;51.01;100759.34;4866340;28;99879;-74
2021/03/18 09:27:45;;;;;;;43.83;26.45;;;;;;;7.76;50.81;100753.31;4861484;28;100737;-74
2021/03/18 09:30:15;;;;;;;45.95;27.20;;;;;;;7.86;50.65;100743.59;4870411;28;97418;-74
2021/03/18 09:32:40;;;;;;;40.42;26.50;;;;;;;8.27;50.09;100753.34;4867591;28;97388;-74
2021/03/18 09:35:06;;;;;;;39.88;26.23;;;;;;;8.28;50.86;100743.75;4871757;28;98489;-74
2021/03/18 09:37:34;;;;;;;41.30;25.55;;;;;;;8.53;50.59;100747.66;4849605;28;101149;-73
2021/03/18 09:39:59;;;;;;;41.63;27.40;;;;;;;8.57;49.92;100749.31;4857501;28;96872;-73
2021/03/18 09:42:25;;;;;;;47.13;27.58;;;;;;;8.89;49.81;100745.22;4854956;28;98123;-75
2021/03/18 09:44:50;;;;;;;46.53;27.98;;;;;;;8.86;49.86;100741.81;4837902;28;101116;-73
2021/03/18 09:47:16;;;;;;;45.03;27.25;;;;;;;8.72;49.98;100742.06;4857832;28;101066;-78
2021/03/18 09:49:42;;;;;;;50.53;30.08;;;;;;;8.57;50.27;100741.47;4870591;28;97100;-74
2021/03/18 09:52:22;;;;;;;51.42;29.65;;;;;;;8.58;50.21;100742.34;4854512;28;96855;-74
2021/03/18 09:54:48;;;;;;;43.50;26.40;;;;;;;8.88;49.53;100740.03;4853068;28;99641;-74
2021/03/18 09:57:14;;;;;;;50.95;28.85;;;;;;;8.84;49.11;100737.47;4855006;28;100866;-74
2021/03/18 09:59:39;;;;;;;40.25;25.83;;;;;;;8.81;49.31;100739.28;4879114;28;96808;-74
2021/03/18 10:02:06;;;;;;;42.05;25.58;;;;;;;8.55;49.36;100732.81;4858925;28;97594;-75
2021/03/18 10:04:38;;;;;;;40.88;27.27;;;;;;;8.52;50.85;100731.97;4870331;28;97663;-74
2021/03/18 10:07:04;;;;;;;40.10;26.27;;;;;;;8.52;49.94;100730.25;4841549;28;101393;-74
2021/03/18 10:09:31;;;;;;;39.08;25.73;;;;;;;8.34;50.31;100730.53;4856184;28;97329;-73
2021/03/18 10:12:02;;;;;;;40.15;26.00;;;;;;;8.29;50.04;100720.19;4855452;28;97509;-73
2021/03/18 10:14:41;;;;;;;47.40;27.67;;;;;;;8.64;50.12;100715.19;4854447;28;101332;-75
2021/03/18 10:17:13;;;;;;;44.38;27.83;;;;;;;8.88;49.13;100711.22;4851805;28;101399;-75
2021/03/18 10:19:50;;;;;;;44.80;28.02;;;;;;;9.29;49.46;100712.94;4860631;28;97825;-74
2021/03/18 10:22:16;;;;;;;44.08;28.27;;;;;;;9.18;49.10;100705.31;4868955;28;97005;-79
2021/03/18 10:24:42;;;;;;;48.03;29.30;;;;;;;9.08;49.12;100701.19;4854849;28;98524;-74
2021/03/18 10:27:13;;;;;;;48.33;29.52;;;;;;;8.77;49.14;100703.59;4852746;28;101157;-75
2021/03/18 10:29:40;;;;;;;43.13;28.08;;;;;;;8.84;49.60;100702.56;4854590;28;96853;-74
2021/03/18 10:32:18;;;;;;;44.72;28.42;;;;;;;9.21;49.36;100696.53;4863355;28;97901;-74
2021/03/18 10:34:54;;;;;;;40.97;26.40;;;;;;;9.39;49.28;100697.88;4843589;28;101704;-73
2021/03/18 10:37:33;;;;;;;39.40;25.88;;;;;;;9.63;48.88;100699.03;4846987;28;101147;-73
2021/03/18 10:40:13;;;;;;;41.25;26.63;;;;;;;9.79;48.26;100696.94;4883813;28;96659;-73
2021/03/18 10:42:39;;;;;;;43.13;28.27;;;;;;;9.46;48.71;100687.22;4892531;28;97186;-75
2021/03/18 10:45:34;;;;;;;38.33;25.45;;;;;;;9.34;49.18;100686.63;4874658;28;97989;-74
2021/03/18 10:48:06;;;;;;;36.70;25.42;;;;;;;9.43;49.37;100683.81;4853289;28;99822;-73
2021/03/18 10:50:33;;;;;;;37.47;23.20;;;;;;;9.48;48.08;100681.94;4871990;28;97107;-74
2021/03/18 10:53:10;;;;;;;34.38;21.75;;;;;;;9.40;48.17;100676.03;4846322;28;96877;-73
2021/03/18 10:55:48;;;;;;;32.47;22.13;;;;;;;9.33;49.13;100669.19;4847922;28;97664;-75
2021/03/18 10:58:20;;;;;;;33.95;21.15;;;;;;;9.23;48.45;100672.03;4856210;28;101641;-73
2021/03/18 11:00:47;;;;;;;34.00;21.45;;;;;;;9.01;48.29;100661.16;4858441;28;96799;-74
2021/03/18 11:03:15;;;;;;;29.90;20.02;;;;;;;9.01;48.98;100652.44;4867740;28;97091;-74
2021/03/18 11:05:52;;;;;;;27.67;17.80;;;;;;;9.02;48.70;100662.06;4855094;28;97987;-75
2021/03/18 11:08:25;;;;;;;24.58;16.27;;;;;;;8.95;48.65;100655.22;4868271;28;99524;-81
2021/03/18 11:10:52;;;;;;;28.42;16.38;;;;;;;9.00;49.51;100651.59;4853059;28;97223;-74
2021/03/18 11:13:29;;;;;;;25.10;15.40;;;;;;;9.19;49.09;100645.94;4862414;28;97330;-78
2021/03/18 11:16:05;;;;;;;25.55;14.50;;;;;;;9.32;47.53;100646.53;4872167;28;98474;-73
2021/03/18 11:18:43;;;;;;;20.80;13.23;;;;;;;9.16;47.51;100646.00;4855156;28;101371;-73
2021/03/18 11:21:29;;;;;;;25.90;13.93;;;;;;;9.01;48.08;100636.75;4849199;28;97344;-74
2021/03/18 11:24:13;;;;;;;23.10;13.85;;;;;;;8.97;47.36;100637.72;4850447;28;97676;-73
2021/03/18 11:26:44;;;;;;;26.80;14.23;;;;;;;8.91;47.42;100630.84;4842068;28;98573;-74